createdAt,value
2023-03-06T00:01:17.349Z,45.70
2023-03-06T00:03:46.085Z,49.20
2023-03-06T00:06:15.047Z,48.70
2023-03-06T00:08:43.473Z,45.90
2023-03-06T00:11:15.041Z,43.70
2023-03-06T00:13:43.319Z,53.00
2023-03-06T00:16:12.252Z,42.80
2023-03-06T00:18:41.393Z,48.30
2023-03-06T00:21:09.708Z,44.50
2023-03-06T00:23:38.024Z,48.40
2023-03-06T00:26:08.567Z,44.00
2023-03-06T00:28:37.511Z,44.60
2023-03-06T00:31:05.983Z,49.90
2023-03-06T00:33:34.229Z,53.50
2023-03-06T00:36:05.712Z,48.90
2023-03-06T00:38:35.873Z,44.50
2023-03-06T00:41:09.565Z,50.50
2023-03-06T00:43:38.182Z,55.30
2023-03-06T00:46:07.914Z,54.30
2023-03-06T00:48:37.194Z,63.30
2023-03-06T00:51:07.194Z,65.60
2023-03-06T00:53:35.614Z,55.50
2023-03-06T00:56:03.923Z,65.00
2023-03-06T00:58:32.958Z,53.10
2023-03-06T01:01:01.195Z,56.40
2023-03-06T01:03:29.393Z,52.20
2023-03-06T01:05:58.018Z,61.80
2023-03-06T01:08:26.222Z,55.60
2023-03-06T01:10:57.887Z,53.40
2023-03-06T01:13:26.172Z,60.20
2023-03-06T01:15:54.412Z,62.30
2023-03-06T01:18:23.115Z,54.60
2023-03-06T01:20:51.330Z,55.70
2023-03-06T01:23:19.531Z,55.40
2023-03-06T01:25:48.678Z,57.10
2023-03-06T01:28:16.945Z,57.60
2023-03-06T01:30:45.090Z,58.20
2023-03-06T01:33:13.342Z,54.80
2023-03-06T01:35:41.581Z,61.40
2023-03-06T01:38:10.238Z,50.70
2023-03-06T01:40:39.221Z,59.80
2023-03-06T01:43:35.070Z,51.90
2023-03-06T01:46:21.575Z,56.40
2023-03-06T01:48:55.108Z,51.00
2023-03-06T01:51:27.168Z,53.30
2023-03-06T01:53:57.906Z,50.20
2023-03-06T01:56:27.064Z,55.90
2023-03-06T01:58:55.481Z,51.80
2023-03-06T02:01:24.629Z,54.50
2023-03-06T02:03:55.689Z,55.70
2023-03-06T02:06:24.188Z,59.00
2023-03-06T02:08:53.511Z,55.90
2023-03-06T02:11:24.550Z,56.90
2023-03-06T02:13:54.870Z,58.50
2023-03-06T02:16:27.821Z,56.50
2023-03-06T02:18:58.180Z,51.60
2023-03-06T02:21:32.237Z,51.20
2023-03-06T02:24:17.239Z,56.30
2023-03-06T02:26:47.886Z,53.30
2023-03-06T02:29:23.012Z,57.80
2023-03-06T02:31:51.587Z,49.40
2023-03-06T02:34:19.792Z,55.00
2023-03-06T02:36:51.543Z,55.00
2023-03-06T02:39:24.170Z,53.50
2023-03-06T02:41:52.935Z,54.10
2023-03-06T02:44:23.530Z,52.00
2023-03-06T02:46:51.709Z,59.90
2023-03-06T02:49:19.899Z,53.60
2023-03-06T02:51:48.222Z,52.10
2023-03-06T02:54:18.564Z,53.50
2023-03-06T02:56:47.193Z,54.10
2023-03-06T02:59:15.504Z,49.70
2023-03-06T03:01:43.834Z,57.10
2023-03-06T03:04:12.197Z,56.30
2023-03-06T03:06:41.308Z,49.30
2023-03-06T03:09:09.891Z,55.90
2023-03-06T03:11:38.180Z,57.00
2023-03-06T03:14:07.720Z,52.20
2023-03-06T03:16:37.532Z,50.00
2023-03-06T03:19:07.432Z,56.70
2023-03-06T03:21:35.908Z,51.70
2023-03-06T03:24:04.653Z,51.40
2023-03-06T03:26:32.891Z,46.50
2023-03-06T03:29:05.457Z,49.30
2023-03-06T03:31:34.195Z,45.30
2023-03-06T03:34:02.866Z,47.90
2023-03-06T03:36:33.360Z,42.80
2023-03-06T03:39:01.866Z,41.70
2023-03-06T03:41:31.300Z,40.30
2023-03-06T03:44:00.500Z,44.70
2023-03-06T03:46:29.706Z,38.60
2023-03-06T03:48:58.792Z,38.30
2023-03-06T03:51:28.010Z,36.60
2023-03-06T03:53:58.257Z,29.70
2023-03-06T03:56:29.250Z,35.00
2023-03-06T03:59:04.631Z,30.70
2023-03-06T04:01:39.701Z,29.30
2023-03-06T04:04:08.780Z,28.20
2023-03-06T04:06:38.783Z,25.20
2023-03-06T04:09:07.454Z,26.40
2023-03-06T04:11:36.385Z,24.60
2023-03-06T04:14:05.268Z,23.90
2023-03-06T04:16:34.914Z,20.20
2023-03-06T04:19:03.685Z,24.60
2023-03-06T04:21:32.691Z,19.30
2023-03-06T04:24:01.816Z,25.60
2023-03-06T04:26:30.502Z,20.40
2023-03-06T04:28:59.140Z,22.50
2023-03-06T04:31:27.801Z,22.80
2023-03-06T04:33:56.171Z,24.60
2023-03-06T04:36:30.776Z,22.80
2023-03-06T04:39:03.447Z,25.80
2023-03-06T04:41:34.028Z,20.80
2023-03-06T04:44:02.247Z,20.60
2023-03-06T04:46:30.496Z,24.70
2023-03-06T04:48:58.846Z,24.30
2023-03-06T04:51:27.946Z,19.70
2023-03-06T04:53:56.982Z,25.30
2023-03-06T04:56:25.910Z,24.50
2023-03-06T04:58:54.162Z,26.00
2023-03-06T05:01:22.683Z,19.60
2023-03-06T05:03:50.932Z,23.90
2023-03-06T05:06:19.381Z,22.10
2023-03-06T05:08:48.034Z,26.10
2023-03-06T05:11:16.904Z,19.90
2023-03-06T05:13:45.187Z,22.20
2023-03-06T05:16:13.493Z,18.10
2023-03-06T05:18:42.577Z,20.20
2023-03-06T05:21:11.450Z,21.70
2023-03-06T05:23:39.752Z,25.50
2023-03-06T05:26:12.184Z,27.20
2023-03-06T05:28:41.058Z,28.00
2023-03-06T05:31:09.751Z,21.80
2023-03-06T05:33:38.077Z,22.70
2023-03-06T05:36:08.717Z,21.30
2023-03-06T05:38:37.029Z,20.00
2023-03-06T05:41:05.614Z,24.30
2023-03-06T05:43:35.288Z,20.60
2023-03-06T05:46:05.247Z,20.60
2023-03-06T05:48:34.586Z,18.80
2023-03-06T05:51:04.348Z,19.40
2023-03-06T05:53:33.228Z,24.50
2023-03-06T05:56:07.216Z,22.10
2023-03-06T05:58:35.833Z,21.30
2023-03-06T06:01:16.157Z,22.20
2023-03-06T06:03:45.259Z,26.80
2023-03-06T06:06:15.385Z,17.60
2023-03-06T06:08:44.118Z,21.70
2023-03-06T06:11:13.755Z,21.80
2023-03-06T06:13:42.335Z,19.20
2023-03-06T06:16:15.967Z,23.20
2023-03-06T06:18:44.437Z,20.40
2023-03-06T06:21:14.966Z,17.20
2023-03-06T06:23:43.542Z,22.40
2023-03-06T06:26:12.260Z,20.90
2023-03-06T06:28:40.915Z,19.30
2023-03-06T06:31:12.511Z,19.40
2023-03-06T06:33:41.473Z,15.90
2023-03-06T06:36:20.486Z,17.30
2023-03-06T06:38:49.699Z,14.80
2023-03-06T06:41:51.085Z,17.10
2023-03-06T06:44:09.017Z,17.70
2023-03-06T06:49:26.642Z,16.60
2023-03-06T06:51:55.054Z,17.10
2023-03-06T06:54:23.350Z,16.50
2023-03-06T06:56:51.946Z,15.30
2023-03-06T06:59:23.788Z,13.40
2023-03-06T07:01:54.331Z,15.90
2023-03-06T07:04:24.238Z,14.20
2023-03-06T07:06:56.014Z,14.50
2023-03-06T07:09:24.318Z,13.80
2023-03-06T07:11:53.810Z,16.70
2023-03-06T07:14:23.192Z,12.30
2023-03-06T07:16:51.572Z,10.90
2023-03-06T07:19:19.905Z,16.20
2023-03-06T07:21:48.257Z,19.00
2023-03-06T07:24:17.378Z,15.00
2023-03-06T07:26:48.769Z,14.70
2023-03-06T07:29:17.595Z,13.80
2023-03-06T07:31:47.101Z,11.90
2023-03-06T07:34:15.597Z,11.80
2023-03-06T07:36:43.832Z,12.30
2023-03-06T07:39:14.911Z,14.20
2023-03-06T07:41:43.119Z,13.10
2023-03-06T07:44:11.316Z,16.60
2023-03-06T07:46:40.435Z,12.00
2023-03-06T07:49:10.310Z,13.50
2023-03-06T07:51:38.469Z,12.20
2023-03-06T07:54:06.754Z,10.90
2023-03-06T07:56:35.270Z,24.20
2023-03-06T07:59:04.241Z,25.40
2023-03-06T08:01:33.345Z,10.30
2023-03-06T08:04:02.266Z,10.50
2023-03-06T08:06:30.568Z,12.10
2023-03-06T08:09:01.680Z,11.10
2023-03-06T08:11:31.264Z,11.80
2023-03-06T08:13:59.974Z,11.40
2023-03-06T08:16:30.493Z,9.40
2023-03-06T08:19:00.107Z,11.80
2023-03-06T08:21:29.323Z,13.30
2023-03-06T08:23:57.634Z,9.50
2023-03-06T08:29:15.799Z,11.30
2023-03-06T08:31:46.939Z,11.70
2023-03-06T08:34:19.207Z,11.00
2023-03-06T08:36:47.570Z,13.20
2023-03-06T08:39:15.858Z,9.20
2023-03-06T08:41:44.244Z,10.60
2023-03-06T08:44:12.696Z,15.70
2023-03-06T08:46:45.719Z,15.20
2023-03-06T08:49:14.236Z,12.20
2023-03-06T08:51:43.195Z,16.30
2023-03-06T08:54:13.406Z,15.00
2023-03-06T08:56:42.208Z,11.50
2023-03-06T08:59:13.384Z,11.00
2023-03-06T09:01:41.831Z,11.80
2023-03-06T09:04:12.005Z,11.90
2023-03-06T09:06:42.618Z,12.00
2023-03-06T09:09:12.081Z,8.90
2023-03-06T09:11:41.485Z,11.40
2023-03-06T09:14:10.033Z,10.80
2023-03-06T09:16:38.828Z,9.80
2023-03-06T09:19:08.248Z,10.60
2023-03-06T09:21:36.500Z,12.20
2023-03-06T09:24:04.953Z,14.70
2023-03-06T09:26:45.151Z,10.40
2023-03-06T09:29:16.578Z,11.60
2023-03-06T09:31:45.594Z,11.50
2023-03-06T09:34:13.772Z,12.30
2023-03-06T09:36:55.606Z,10.50
2023-03-06T09:39:26.626Z,11.90
2023-03-06T09:41:56.878Z,16.80
2023-03-06T09:44:29.428Z,9.30
2023-03-06T09:47:18.874Z,12.00
2023-03-06T09:50:09.979Z,11.00
2023-03-06T09:52:57.376Z,10.70
2023-03-06T09:55:29.200Z,10.90
2023-03-06T09:58:11.300Z,8.60
2023-03-06T10:01:36.165Z,11.40
2023-03-06T10:04:12.411Z,9.80
2023-03-06T10:06:55.256Z,9.60
2023-03-06T10:09:43.104Z,10.80
2023-03-06T10:12:24.772Z,11.70
2023-03-06T10:15:09.003Z,13.40
2023-03-06T10:17:42.066Z,12.30
2023-03-06T10:20:37.594Z,12.30
2023-03-06T10:23:24.974Z,10.50
2023-03-06T10:26:01.750Z,13.40
2023-03-06T10:28:41.475Z,14.90
2023-03-06T10:31:20.865Z,13.70
2023-03-06T10:34:17.947Z,15.90
2023-03-06T10:36:46.387Z,17.40
2023-03-06T10:39:18.055Z,13.90
2023-03-06T10:41:47.392Z,15.50
2023-03-06T10:44:15.674Z,14.80
2023-03-06T10:46:48.917Z,15.30
2023-03-06T10:49:27.582Z,15.60
2023-03-06T10:52:19.651Z,17.00
2023-03-06T10:54:49.004Z,19.70
2023-03-06T10:57:21.405Z,16.60
2023-03-06T10:59:58.500Z,15.50
2023-03-06T11:02:37.931Z,23.50
2023-03-06T11:05:18.219Z,14.90
2023-03-06T11:08:00.802Z,13.90
2023-03-06T11:10:32.240Z,15.30
2023-03-06T11:13:07.736Z,14.50
2023-03-06T11:15:36.833Z,14.30
2023-03-06T11:18:27.993Z,15.50
2023-03-06T11:20:57.913Z,12.40
2023-03-06T11:23:39.254Z,12.90
2023-03-06T11:26:39.256Z,14.60
2023-03-06T11:29:22.860Z,16.60
2023-03-06T11:32:04.312Z,15.10
2023-03-06T11:34:49.938Z,15.10
2023-03-06T11:40:12.006Z,14.20
2023-03-06T11:42:47.792Z,15.30
2023-03-06T11:45:46.932Z,19.50
2023-03-06T11:48:15.588Z,16.00
2023-03-06T11:50:51.577Z,12.40
2023-03-06T11:56:24.146Z,16.10
2023-03-06T11:59:07.940Z,13.40
2023-03-06T12:02:01.453Z,14.40
2023-03-06T12:05:07.081Z,13.10
2023-03-06T12:07:41.309Z,10.80
2023-03-06T12:10:29.235Z,11.10
2023-03-06T12:13:30.139Z,11.70
2023-03-06T12:16:17.430Z,16.00
2023-03-06T12:19:03.806Z,17.50
2023-03-06T12:21:45.043Z,21.20
2023-03-06T12:24:41.226Z,20.60
2023-03-06T12:27:33.559Z,18.20
2023-03-06T12:30:40.437Z,19.10
2023-03-06T12:33:40.827Z,20.60
2023-03-06T12:36:11.847Z,17.10
2023-03-06T12:38:43.228Z,19.80
2023-03-06T12:41:33.588Z,15.90
2023-03-06T12:44:11.083Z,23.40
2023-03-06T12:46:47.260Z,21.90
2023-03-06T12:49:39.079Z,16.60
2023-03-06T12:52:09.810Z,16.40
2023-03-06T12:54:41.343Z,16.10
2023-03-06T12:57:12.520Z,18.10
2023-03-06T12:59:48.116Z,14.90
2023-03-06T13:02:38.106Z,14.70
2023-03-06T13:05:22.510Z,14.10
2023-03-06T13:08:15.771Z,15.40
2023-03-06T13:11:02.637Z,15.40
2023-03-06T13:13:48.499Z,17.40
2023-03-06T13:16:29.367Z,14.70
2023-03-06T13:19:18.463Z,14.90
2023-03-06T13:21:50.978Z,11.60
2023-03-06T13:24:27.006Z,11.90
2023-03-06T13:27:04.935Z,15.70
2023-03-06T13:29:36.378Z,14.70
2023-03-06T13:32:19.048Z,15.80
2023-03-06T13:34:50.157Z,17.70
2023-03-06T13:37:23.497Z,19.10
2023-03-06T13:40:00.671Z,16.30
2023-03-06T13:42:30.688Z,18.60
2023-03-06T13:45:27.131Z,18.30
2023-03-06T13:48:37.550Z,16.90
2023-03-06T13:50:49.979Z,21.60
2023-03-06T13:53:36.570Z,16.70
2023-03-06T13:56:26.597Z,19.10
2023-03-06T13:59:28.435Z,19.60
2023-03-06T14:02:20.217Z,21.70
2023-03-06T14:05:10.633Z,24.40
2023-03-06T14:07:44.486Z,20.60
2023-03-06T14:10:25.592Z,20.10
2023-03-06T14:13:32.333Z,20.20
2023-03-06T14:16:17.614Z,22.00
2023-03-06T14:18:50.211Z,22.40
2023-03-06T14:21:31.182Z,25.50
2023-03-06T14:24:04.444Z,18.00
2023-03-06T14:26:40.976Z,17.70
2023-03-06T14:29:24.549Z,18.80
2023-03-06T14:31:55.839Z,18.10
2023-03-06T14:34:26.108Z,20.60
2023-03-06T14:37:00.861Z,19.60
2023-03-06T14:39:39.026Z,17.10
2023-03-06T14:42:28.400Z,18.50
2023-03-06T14:45:18.769Z,20.50
2023-03-06T14:47:53.030Z,20.50
2023-03-06T14:50:34.227Z,19.00
2023-03-06T14:53:23.246Z,19.50
2023-03-06T14:56:05.067Z,21.60
2023-03-06T14:59:00.042Z,23.90
2023-03-06T15:01:41.674Z,22.70
2023-03-06T15:04:44.731Z,21.30
2023-03-06T15:07:23.489Z,21.30
2023-03-06T15:09:55.259Z,25.90
2023-03-06T15:12:23.650Z,25.50
2023-03-06T15:15:27.237Z,25.50
2023-03-06T15:17:55.560Z,21.30
2023-03-06T15:21:00.721Z,23.00
2023-03-06T15:23:36.951Z,23.40
2023-03-06T15:29:22.349Z,23.80
2023-03-06T15:31:50.835Z,24.60
2023-03-06T15:34:23.872Z,23.90
2023-03-06T15:36:57.512Z,23.60
2023-03-06T15:39:31.925Z,27.90
2023-03-06T15:42:16.819Z,25.90
2023-03-06T15:45:00.554Z,27.00
2023-03-06T15:47:29.058Z,29.10
2023-03-06T15:49:57.768Z,28.00
2023-03-06T15:52:29.215Z,29.30
2023-03-06T15:54:58.697Z,23.70
2023-03-06T15:57:32.727Z,25.80
2023-03-06T16:00:02.499Z,28.60
2023-03-06T16:02:39.782Z,28.70
2023-03-06T16:05:16.632Z,30.10
2023-03-06T16:07:46.885Z,31.90
2023-03-06T16:10:18.955Z,34.00
2023-03-06T16:12:51.623Z,33.10
2023-03-06T16:15:23.928Z,37.00
2023-03-06T16:17:52.236Z,34.00
2023-03-06T16:20:23.362Z,33.90
2023-03-06T16:22:53.833Z,35.90
2023-03-06T16:25:24.662Z,32.30
2023-03-06T16:27:58.373Z,33.60
2023-03-06T16:30:29.978Z,37.50
2023-03-06T16:32:59.479Z,31.90
2023-03-06T16:35:28.203Z,40.70
2023-03-06T16:37:56.520Z,41.40
2023-03-06T16:43:13.722Z,40.50
2023-03-06T16:45:42.520Z,47.60
2023-03-06T16:48:15.978Z,41.50
2023-03-06T16:50:44.912Z,33.60
2023-03-06T16:53:14.125Z,30.00
2023-03-06T16:55:42.620Z,31.90
2023-03-06T16:58:11.381Z,32.90
2023-03-06T17:00:41.020Z,32.20
2023-03-06T17:03:09.548Z,31.50
2023-03-06T17:05:39.157Z,33.20
2023-03-06T17:08:07.525Z,27.70
2023-03-06T17:10:35.911Z,28.90
2023-03-06T17:13:05.460Z,30.20
2023-03-06T17:15:33.748Z,26.40
2023-03-06T17:18:02.236Z,31.80
2023-03-06T17:20:31.080Z,27.50
2023-03-06T17:22:59.225Z,27.40
2023-03-06T17:25:27.583Z,25.50
2023-03-06T17:27:55.866Z,26.50
2023-03-06T17:30:24.072Z,45.00
2023-03-06T17:32:53.904Z,37.40
2023-03-06T17:35:22.195Z,50.40
2023-03-06T17:37:51.531Z,36.00
2023-03-06T17:40:22.744Z,42.10
2023-03-06T17:42:53.471Z,32.20
2023-03-06T17:45:21.737Z,30.90
2023-03-06T17:47:56.336Z,32.60
2023-03-06T17:50:26.753Z,26.10
2023-03-06T17:52:55.058Z,26.50
2023-03-06T17:55:23.260Z,26.60
2023-03-06T17:57:53.323Z,25.20
2023-03-06T18:00:23.195Z,33.00
2023-03-06T18:02:51.637Z,29.20
2023-03-06T18:05:25.009Z,35.40
2023-03-06T18:07:56.999Z,40.10
2023-03-06T18:10:25.314Z,39.40
2023-03-06T18:12:53.697Z,44.60
2023-03-06T18:15:22.613Z,53.20
2023-03-06T18:17:53.111Z,62.10
2023-03-06T18:20:23.797Z,54.10
2023-03-06T18:22:55.212Z,61.50
2023-03-06T18:25:24.723Z,51.90
2023-03-06T18:27:53.006Z,56.30
2023-03-06T18:30:22.776Z,47.80
2023-03-06T18:32:51.990Z,54.40
2023-03-06T18:35:21.272Z,50.20
2023-03-06T18:37:50.315Z,57.60
2023-03-06T18:40:19.490Z,56.80
2023-03-06T18:42:53.020Z,60.30
2023-03-06T18:45:23.161Z,67.50
2023-03-06T18:47:54.920Z,56.10
2023-03-06T18:50:24.834Z,56.60
2023-03-06T18:52:54.479Z,61.40
2023-03-06T18:55:25.650Z,69.50
2023-03-06T18:57:53.976Z,62.20
2023-03-06T19:00:22.940Z,67.90
2023-03-06T19:02:56.125Z,69.40
2023-03-06T19:05:25.571Z,77.10
2023-03-06T19:07:54.434Z,65.00
2023-03-06T19:10:22.755Z,58.70
2023-03-06T19:12:53.562Z,66.00
2023-03-06T19:15:21.777Z,70.70
2023-03-06T19:17:51.674Z,57.30
2023-03-06T19:20:19.923Z,49.40
2023-03-06T19:22:48.048Z,58.40
2023-03-06T19:25:16.566Z,53.70
2023-03-06T19:27:46.435Z,60.00
2023-03-06T19:30:15.673Z,51.30
2023-03-06T19:32:46.885Z,50.00
2023-03-06T19:35:15.148Z,52.30
2023-03-06T19:37:43.815Z,55.00
2023-03-06T19:40:13.021Z,56.50
2023-03-06T19:42:41.514Z,58.90
2023-03-06T19:45:11.593Z,54.60
2023-03-06T19:47:40.630Z,61.40
2023-03-06T19:50:09.644Z,49.70
2023-03-06T19:52:39.465Z,55.80
2023-03-06T19:55:09.784Z,48.90
2023-03-06T19:57:38.029Z,48.60
2023-03-06T20:00:06.866Z,52.70
2023-03-06T20:02:40.877Z,44.60
2023-03-06T20:05:09.441Z,44.10
2023-03-06T20:07:38.053Z,49.20
2023-03-06T20:10:06.634Z,48.40
2023-03-06T20:12:35.838Z,47.30
2023-03-06T20:15:04.825Z,67.70
2023-03-06T20:17:34.426Z,59.70
2023-03-06T20:20:03.209Z,66.10
2023-03-06T20:22:32.305Z,81.90
2023-03-06T20:25:00.567Z,97.60
2023-03-06T20:27:28.768Z,88.20
2023-03-06T20:29:57.209Z,74.30
2023-03-06T20:32:25.583Z,75.40
2023-03-06T20:34:53.758Z,61.80
2023-03-06T20:37:22.086Z,50.50
2023-03-06T20:39:57.136Z,51.80
2023-03-06T20:42:25.504Z,42.70
2023-03-06T20:44:56.512Z,45.90
2023-03-06T20:47:25.932Z,43.90
2023-03-06T20:49:54.328Z,41.80
2023-03-06T20:52:22.515Z,37.00
2023-03-06T20:54:51.589Z,43.40
2023-03-06T20:57:19.898Z,42.80
2023-03-06T20:59:48.056Z,44.90
2023-03-06T21:02:16.302Z,40.90
2023-03-06T21:04:44.930Z,40.70
2023-03-06T21:07:13.260Z,42.70
2023-03-06T21:09:44.747Z,39.60
2023-03-06T21:12:12.946Z,44.10
2023-03-06T21:14:41.120Z,42.50
2023-03-06T21:17:09.310Z,38.90
2023-03-06T21:19:37.529Z,41.20
2023-03-06T21:22:06.661Z,38.50
2023-03-06T21:24:36.275Z,32.50
2023-03-06T21:27:04.604Z,37.30
2023-03-06T21:29:32.755Z,40.50
2023-03-06T21:32:00.954Z,38.20
2023-03-06T21:34:29.186Z,39.30
2023-03-06T21:36:57.968Z,38.30
2023-03-06T21:39:26.189Z,39.70
2023-03-06T21:41:54.365Z,41.20
2023-03-06T21:44:22.581Z,37.20
2023-03-06T21:46:50.830Z,34.90
2023-03-06T21:49:19.038Z,50.80
2023-03-06T21:51:48.223Z,42.50
2023-03-06T21:54:16.439Z,45.70
2023-03-06T21:56:44.779Z,42.40
2023-03-06T21:59:14.611Z,37.30
2023-03-06T22:01:42.895Z,40.00
2023-03-06T22:04:11.071Z,35.00
2023-03-06T22:06:40.827Z,38.70
2023-03-06T22:09:10.090Z,39.50
2023-03-06T22:11:38.238Z,33.20
2023-03-06T22:14:06.807Z,34.30
2023-03-06T22:16:35.071Z,34.60
2023-03-06T22:19:03.597Z,27.80
2023-03-06T22:21:31.967Z,26.90
2023-03-06T22:24:00.215Z,27.90
2023-03-06T22:26:29.742Z,29.90
2023-03-06T22:28:58.050Z,29.20
2023-03-06T22:31:28.799Z,35.60
2023-03-06T22:34:00.326Z,30.80
2023-03-06T22:36:32.869Z,26.40
2023-03-06T22:39:03.540Z,34.60
2023-03-06T22:41:32.640Z,28.10
2023-03-06T22:44:02.411Z,28.20
2023-03-06T22:46:32.350Z,28.50
2023-03-06T22:49:01.307Z,32.20
2023-03-06T22:51:29.802Z,28.20
2023-03-06T22:53:58.405Z,30.60
2023-03-06T22:56:27.393Z,26.60
2023-03-06T22:58:55.746Z,28.10
2023-03-06T23:01:29.440Z,25.20
2023-03-06T23:04:00.706Z,28.10
2023-03-06T23:06:35.482Z,25.30
2023-03-06T23:09:08.601Z,27.50
2023-03-06T23:11:55.773Z,21.50
2023-03-06T23:14:45.017Z,21.60
2023-03-06T23:17:32.311Z,23.10
2023-03-06T23:20:20.967Z,23.40
2023-03-06T23:23:08.049Z,27.30
2023-03-06T23:25:42.795Z,28.00
2023-03-06T23:28:12.204Z,22.30
2023-03-06T23:30:41.490Z,23.90
2023-03-06T23:33:10.723Z,30.10
2023-03-06T23:35:39.423Z,27.00
2023-03-06T23:38:09.440Z,28.70
2023-03-06T23:40:38.566Z,25.00
2023-03-06T23:43:07.073Z,29.50
2023-03-06T23:45:35.225Z,36.80
2023-03-06T23:48:06.949Z,27.90
2023-03-06T23:50:35.113Z,28.20
2023-03-06T23:53:03.659Z,30.30
2023-03-06T23:55:31.863Z,30.70
2023-03-06T23:58:01.610Z,33.90
